Whitehouse, Texas
Current Conditions -  °F | °C
As of 8:53 AM on Monday 24 Nov 2014 (Local Time) from KTYR Reporting Station
Clear Clear  
Wind Chill: 50°   Ceiling: Unl
Heat Index: 50°   Visibility: 10mi
Dew Point: 37°   Wind: 10mph
Humidity: 61%   Direction: 310°NW
Pressure: 30.02"   Gusts: NA
Location:  32.23°N, 95.23°W
Report Text: KTYR 241453Z 31009KT 10SM CLR 10/03 A3002 RMK AO2 SLP164 T01000028 53034
Loading
Personal Weather Stations






























Interactive Weather Map New forecast layout! Learn more

10-Day Weather Forecast

Advertisements
Track Severe Weather on mobile